Time;durP1;ratioP1;P1;durP2;ratioP2;P2;SDS_P1;SDS_P2;PMS_P1;PMS_P2;Temp;Humidity;BMP_temperature;BMP_pressure;BME280_temperature;BME280_humidity;BME280_pressure;Samples;Min_cycle;Max_cycle;Signal;HPM_P1;HPM_P2
2021/01/08 00:01:41;;;;;;;55.13;27.50;;;5.70;65.70;;;;;;5075456;28;20481;-71
2021/01/08 00:04:07;;;;;;;33.63;18.00;;;5.60;65.50;;;;;;5066515;28;20024;-71
2021/01/08 00:06:33;;;;;;;24.02;14.50;;;5.60;65.60;;;;;;5079480;28;20036;-71
2021/01/08 00:08:59;;;;;;;23.73;14.30;;;5.60;65.70;;;;;;5074063;28;20029;-73
2021/01/08 00:11:26;;;;;;;27.48;15.00;;;5.60;65.80;;;;;;5069342;28;20533;-73
2021/01/08 00:13:52;;;;;;;24.13;14.38;;;5.70;66.00;;;;;;5075829;28;20116;-73
2021/01/08 00:16:17;;;;;;;22.02;13.77;;;5.70;66.10;;;;;;5057274;28;20477;-71
2021/01/08 00:18:47;;;;;;;22.95;14.23;;;5.70;66.00;;;;;;5056899;28;20131;-74
2021/01/08 00:21:13;;;;;;;21.90;13.73;;;5.70;66.00;;;;;;5056068;28;20390;-73
2021/01/08 00:23:40;;;;;;;23.63;13.70;;;5.70;65.90;;;;;;5056736;28;20056;-73
2021/01/08 00:26:06;;;;;;;20.65;13.40;;;5.70;66.10;;;;;;5069866;28;20043;-73
2021/01/08 00:28:32;;;;;;;20.33;13.68;;;5.70;66.20;;;;;;5075555;28;20021;-75
2021/01/08 00:30:57;;;;;;;21.70;13.88;;;5.80;66.30;;;;;;5060293;28;20386;-73
2021/01/08 00:33:24;;;;;;;22.63;14.27;;;5.80;66.20;;;;;;5055216;28;20021;-72
2021/01/08 00:35:50;;;;;;;26.30;15.38;;;5.80;66.10;;;;;;5060469;28;20031;-72
2021/01/08 00:38:15;;;;;;;24.27;15.55;;;5.80;65.90;;;;;;5053787;28;20025;-74
2021/01/08 00:40:41;;;;;;;23.05;14.52;;;5.80;65.60;;;;;;5066717;28;20016;-72
2021/01/08 00:43:07;;;;;;;22.70;14.00;;;5.80;65.40;;;;;;5056398;28;20486;-72
2021/01/08 00:45:32;;;;;;;24.45;14.55;;;5.80;65.50;;;;;;5056824;28;20381;-72
2021/01/08 00:47:58;;;;;;;24.33;15.75;;;5.80;65.60;;;;;;5056968;28;20025;-73
2021/01/08 00:50:24;;;;;;;23.15;14.25;;;5.80;65.60;;;;;;5063014;28;20477;-72
2021/01/08 00:52:50;;;;;;;23.58;14.23;;;5.80;65.40;;;;;;5065251;28;20037;-73
2021/01/08 00:55:16;;;;;;;24.00;15.35;;;5.80;65.40;;;;;;5071999;28;20111;-72
2021/01/08 00:57:41;;;;;;;28.27;16.60;;;5.80;65.40;;;;;;5083331;28;20039;-72
2021/01/08 01:00:08;;;;;;;25.45;16.05;;;5.90;65.30;;;;;;5074946;28;20020;-72
2021/01/08 01:02:34;;;;;;;24.23;14.73;;;5.80;65.00;;;;;;5080338;28;20031;-73
2021/01/08 01:05:00;;;;;;;27.23;15.82;;;5.80;65.00;;;;;;5090746;28;20063;-72
2021/01/08 01:07:25;;;;;;;27.77;16.40;;;5.80;65.20;;;;;;5078781;28;20055;-72
2021/01/08 01:09:51;;;;;;;26.30;15.48;;;5.80;65.00;;;;;;5083615;28;20031;-73
2021/01/08 01:12:17;;;;;;;24.67;15.63;;;5.80;64.80;;;;;;5080962;28;20029;-73
2021/01/08 01:14:44;;;;;;;24.77;14.13;;;5.80;65.70;;;;;;5078672;28;20098;-71
2021/01/08 01:17:10;;;;;;;27.13;16.38;;;5.70;65.00;;;;;;5073056;28;20025;-71
2021/01/08 01:19:36;;;;;;;23.15;13.90;;;5.70;65.00;;;;;;5075158;28;20107;-71
2021/01/08 01:22:03;;;;;;;21.85;13.63;;;5.70;65.00;;;;;;5084379;28;20163;-72
2021/01/08 01:24:28;;;;;;;22.67;14.50;;;5.70;65.20;;;;;;5064432;28;669421;-71
2021/01/08 01:26:56;;;;;;;22.65;14.80;;;5.70;65.20;;;;;;5065321;28;20481;-73
2021/01/08 01:29:25;;;;;;;22.27;13.00;;;5.60;65.10;;;;;;5052845;28;20041;-73
2021/01/08 01:31:51;;;;;;;25.38;14.82;;;5.60;65.10;;;;;;5059984;28;20089;-74
2021/01/08 01:34:18;;;;;;;25.52;15.75;;;5.60;65.20;;;;;;5073665;28;20031;-72
2021/01/08 01:36:45;;;;;;;25.42;15.25;;;5.50;65.20;;;;;;5073691;28;20028;-74
2021/01/08 01:39:12;;;;;;;23.05;13.88;;;5.50;65.30;;;;;;5084515;28;20035;-75
2021/01/08 01:41:39;;;;;;;22.70;14.07;;;5.50;65.40;;;;;;5076737;28;20078;-73
2021/01/08 01:44:06;;;;;;;26.60;15.02;;;5.50;65.60;;;;;;5073703;28;20019;-73
2021/01/08 01:46:31;;;;;;;20.25;12.35;;;5.50;65.70;;;;;;5087117;28;20028;-73
2021/01/08 01:48:58;;;;;;;24.50;14.85;;;5.50;65.60;;;;;;5083744;28;20031;-74
2021/01/08 01:51:23;;;;;;;23.08;14.38;;;5.50;65.60;;;;;;5079337;28;20028;-73
2021/01/08 01:53:50;;;;;;;23.80;14.00;;;5.50;65.50;;;;;;5089760;28;20016;-71
2021/01/08 01:56:16;;;;;;;25.58;14.90;;;5.40;65.40;;;;;;5076425;28;20043;-72
2021/01/08 01:58:42;;;;;;;21.92;14.13;;;5.40;65.40;;;;;;5069859;28;20107;-71
2021/01/08 02:01:10;;;;;;;23.98;14.18;;;5.40;65.40;;;;;;5081647;28;20119;-72
2021/01/08 02:03:41;;;;;;;22.90;13.57;;;5.40;65.50;;;;;;5088938;28;20020;-73
2021/01/08 02:06:12;;;;;;;22.23;13.35;;;5.40;65.60;;;;;;5076703;28;20020;-74
2021/01/08 02:08:43;;;;;;;20.10;12.40;;;5.40;66.50;;;;;;5086209;28;20170;-72
2021/01/08 02:11:15;;;;;;;22.33;13.10;;;5.40;65.80;;;;;;5082018;28;20063;-73
2021/01/08 02:13:53;;;;;;;24.45;14.32;;;5.40;65.70;;;;;;5053858;28;20040;-75
2021/01/08 02:16:19;;;;;;;22.05;13.73;;;5.40;65.60;;;;;;5062819;28;20024;-74
2021/01/08 02:18:47;;;;;;;24.40;13.57;;;5.40;65.60;;;;;;5084769;28;20092;-76
2021/01/08 02:21:24;;;;;;;22.60;14.23;;;5.40;66.40;;;;;;5085336;28;20069;-74
2021/01/08 02:24:14;;;;;;;25.95;15.00;;;5.30;65.50;;;;;;5076052;28;20135;-73
2021/01/08 02:26:41;;;;;;;22.23;14.05;;;5.30;65.40;;;;;;5083636;28;20024;-76
2021/01/08 02:29:09;;;;;;;25.58;14.55;;;5.30;65.50;;;;;;5084394;28;20036;-73
2021/01/08 02:31:36;;;;;;;20.98;13.63;;;5.30;65.50;;;;;;5073269;28;20025;-73
2021/01/08 02:34:03;;;;;;;20.63;12.50;;;5.30;65.60;;;;;;5088375;28;20103;-76
2021/01/08 02:36:30;;;;;;;20.92;12.80;;;5.30;65.80;;;;;;5078914;28;20488;-74
2021/01/08 02:38:56;;;;;;;24.40;14.00;;;5.30;66.00;;;;;;5074555;28;20021;-73
2021/01/08 02:41:23;;;;;;;23.52;14.57;;;5.30;66.20;;;;;;5060463;28;20074;-74
2021/01/08 02:43:51;;;;;;;24.27;14.18;;;5.30;66.30;;;;;;5086527;28;20034;-76
2021/01/08 02:46:17;;;;;;;20.08;12.27;;;5.30;66.30;;;;;;5066577;28;20024;-74
2021/01/08 02:48:43;;;;;;;20.90;12.65;;;5.30;66.40;;;;;;5083500;28;20024;-74
2021/01/08 02:51:09;;;;;;;22.55;14.15;;;5.40;66.60;;;;;;5080777;28;20121;-74
2021/01/08 02:53:38;;;;;;;24.02;14.45;;;5.40;66.60;;;;;;5087975;28;20056;-73
2021/01/08 02:56:19;;;;;;;22.25;13.65;;;5.40;66.50;;;;;;5069127;28;20021;-76
2021/01/08 02:58:46;;;;;;;22.77;13.43;;;5.40;66.50;;;;;;5084182;28;20016;-75
2021/01/08 03:01:13;;;;;;;25.63;14.30;;;5.50;66.60;;;;;;5084363;28;20028;-76
2021/01/08 03:03:39;;;;;;;24.52;14.02;;;5.50;66.60;;;;;;5074116;28;20420;-75
2021/01/08 03:06:06;;;;;;;21.83;13.73;;;5.50;66.50;;;;;;5089019;28;20025;-77
2021/01/08 03:08:34;;;;;;;24.08;14.95;;;5.60;66.50;;;;;;5079119;28;20056;-74
2021/01/08 03:11:00;;;;;;;23.48;14.43;;;5.60;66.30;;;;;;5091044;28;20028;-77
2021/01/08 03:13:30;;;;;;;22.15;13.55;;;5.60;66.30;;;;;;5078348;28;20017;-76
2021/01/08 03:15:57;;;;;;;24.15;15.02;;;5.60;66.40;;;;;;5090579;28;20056;-75
2021/01/08 03:18:23;;;;;;;21.23;12.55;;;5.60;66.50;;;;;;5086933;28;20025;-74
2021/01/08 03:20:49;;;;;;;30.50;18.27;;;5.60;66.50;;;;;;5079758;28;20153;-76
2021/01/08 03:23:14;;;;;;;26.83;16.33;;;5.60;66.30;;;;;;5079448;28;20079;-78
2021/01/08 03:25:40;;;;;;;24.40;14.48;;;5.60;66.00;;;;;;5066350;28;20039;-75
2021/01/08 03:28:06;;;;;;;23.25;14.18;;;5.60;65.90;;;;;;5088325;28;20110;-74
2021/01/08 03:30:31;;;;;;;27.67;17.00;;;5.60;65.70;;;;;;5066515;28;20576;-76
2021/01/08 03:32:57;;;;;;;27.52;17.33;;;5.60;65.60;;;;;;5072002;28;20028;-76
2021/01/08 03:35:23;;;;;;;25.50;15.75;;;5.60;65.20;;;;;;5078401;28;20082;-76
2021/01/08 03:37:48;;;;;;;25.10;15.55;;;5.60;65.20;;;;;;5088621;28;20055;-77
2021/01/08 03:40:14;;;;;;;30.75;17.52;;;5.50;65.40;;;;;;5069154;28;20020;-74
2021/01/08 03:42:40;;;;;;;27.85;15.75;;;5.50;65.50;;;;;;5084285;28;20071;-74
2021/01/08 03:45:06;;;;;;;25.40;16.02;;;5.50;65.30;;;;;;5083204;28;20024;-75
2021/01/08 03:47:32;;;;;;;25.77;15.30;;;5.50;65.10;;;;;;5075740;28;20070;-76
2021/01/08 03:49:58;;;;;;;28.95;16.33;;;5.40;65.00;;;;;;5088555;28;20542;-74
2021/01/08 03:52:23;;;;;;;24.20;14.98;;;5.40;65.10;;;;;;5071855;28;20385;-77
2021/01/08 03:54:49;;;;;;;31.40;18.17;;;5.40;65.20;;;;;;5063292;28;20082;-78
2021/01/08 03:57:15;;;;;;;27.33;15.93;;;5.30;65.20;;;;;;5062972;28;20343;-73
2021/01/08 03:59:40;;;;;;;24.65;14.63;;;5.30;65.10;;;;;;5084126;28;20051;-75
2021/01/08 04:02:06;;;;;;;24.50;14.15;;;5.20;65.10;;;;;;5075072;28;20094;-77
2021/01/08 04:04:32;;;;;;;26.20;15.93;;;5.20;65.20;;;;;;5085133;28;20024;-78
2021/01/08 04:06:58;;;;;;;28.80;16.83;;;5.20;65.30;;;;;;5081993;28;20020;-75
2021/01/08 04:09:23;;;;;;;26.67;16.42;;;5.10;65.40;;;;;;5070252;28;20074;-76
2021/01/08 04:11:49;;;;;;;29.08;15.80;;;5.10;65.30;;;;;;5085506;28;20051;-74
2021/01/08 04:14:15;;;;;;;27.55;15.93;;;5.10;65.40;;;;;;5075972;28;20023;-76
2021/01/08 04:16:41;;;;;;;28.35;15.50;;;5.10;65.40;;;;;;5086976;28;20021;-75
2021/01/08 04:19:08;;;;;;;26.35;15.57;;;5.00;65.30;;;;;;5075192;28;20127;-76
2021/01/08 04:21:34;;;;;;;30.42;17.52;;;5.00;65.30;;;;;;5090673;28;20074;-76
2021/01/08 04:24:01;;;;;;;30.13;17.58;;;4.90;65.30;;;;;;5073914;28;20048;-76
2021/01/08 04:26:27;;;;;;;31.00;17.70;;;4.90;65.30;;;;;;5095545;28;20103;-77
2021/01/08 04:28:52;;;;;;;35.25;19.60;;;4.90;65.20;;;;;;5085645;28;20162;-79
2021/01/08 04:31:18;;;;;;;35.88;17.92;;;4.80;65.30;;;;;;5063078;28;20039;-80
2021/01/08 04:33:44;;;;;;;32.88;18.33;;;4.80;65.70;;;;;;5088123;28;20404;-78
2021/01/08 04:36:10;;;;;;;28.00;16.52;;;4.80;66.00;;;;;;5078728;28;20087;-78
2021/01/08 04:38:39;;;;;;;34.78;18.77;;;4.80;66.20;;;;;;5079214;28;20096;-77
2021/01/08 04:41:06;;;;;;;32.83;20.02;;;4.90;66.50;;;;;;5076230;28;20020;-79
2021/01/08 04:43:33;;;;;;;35.10;19.00;;;4.90;66.40;;;;;;5080006;28;20020;-78
2021/01/08 04:46:09;;;;;;;38.22;21.42;;;4.90;66.40;;;;;;5090295;28;20050;-80
2021/01/08 04:48:35;;;;;;;38.67;21.17;;;5.00;66.50;;;;;;5081957;28;20016;-79
2021/01/08 04:51:04;;;;;;;37.65;21.15;;;5.00;66.50;;;;;;5084085;28;20028;-81
2021/01/08 04:53:33;;;;;;;35.15;19.77;;;5.00;66.30;;;;;;5063308;28;20021;-80
2021/01/08 04:56:05;;;;;;;31.90;18.13;;;5.00;66.10;;;;;;5089840;28;20024;-76
2021/01/08 04:58:32;;;;;;;32.10;19.15;;;5.00;65.90;;;;;;5081118;28;20020;-80
2021/01/08 05:01:01;;;;;;;32.88;19.05;;;5.00;65.80;;;;;;5085353;28;20525;-78
2021/01/08 05:03:28;;;;;;;34.25;18.90;;;5.00;65.70;;;;;;5090077;28;20017;-77
2021/01/08 05:05:55;;;;;;;34.90;18.67;;;5.00;65.60;;;;;;5076462;28;20024;-79
2021/01/08 05:08:21;;;;;;;29.80;17.05;;;5.10;65.40;;;;;;5078974;28;20505;-75
2021/01/08 05:10:47;;;;;;;39.90;21.77;;;5.00;65.30;;;;;;5087169;28;20381;-78
2021/01/08 05:13:13;;;;;;;32.55;17.27;;;5.00;65.30;;;;;;5088970;28;20024;-79
2021/01/08 05:15:40;;;;;;;36.90;21.08;;;5.00;65.30;;;;;;5084695;28;20028;-77
2021/01/08 05:18:06;;;;;;;46.97;23.50;;;4.90;65.40;;;;;;5095512;28;20023;-78
2021/01/08 05:20:32;;;;;;;37.85;20.10;;;4.90;65.40;;;;;;5089610;28;20020;-81
2021/01/08 05:23:00;;;;;;;34.65;18.95;;;4.90;65.30;;;;;;5076269;28;20028;-78
2021/01/08 05:25:26;;;;;;;35.90;19.90;;;4.90;65.40;;;;;;5076173;28;20039;-77
2021/01/08 05:27:51;;;;;;;36.70;20.92;;;4.90;65.50;;;;;;5073246;28;20025;-75
2021/01/08 05:30:25;;;;;;;42.65;21.08;;;4.90;65.50;;;;;;5075372;28;20032;-75
2021/01/08 05:32:59;;;;;;;41.13;22.52;;;4.80;65.30;;;;;;5075689;28;20505;-76
2021/01/08 05:35:26;;;;;;;35.13;20.55;;;4.90;65.30;;;;;;5075198;28;20032;-82
2021/01/08 05:37:55;;;;;;;41.88;22.20;;;4.80;65.20;;;;;;5060361;28;20052;-76
2021/01/08 05:40:27;;;;;;;38.08;20.15;;;4.80;64.90;;;;;;5055174;28;20049;-79
2021/01/08 05:42:53;;;;;;;36.83;20.42;;;4.70;64.80;;;;;;5055329;28;20033;-82
2021/01/08 05:45:20;;;;;;;39.78;20.92;;;4.70;64.90;;;;;;5056627;28;20063;-79
2021/01/08 05:47:47;;;;;;;44.72;23.45;;;4.60;64.80;;;;;;5056511;28;20043;-79
2021/01/08 05:50:16;;;;;;;44.05;23.23;;;4.60;64.80;;;;;;5055819;28;20283;-81
2021/01/08 05:52:44;;;;;;;40.05;20.83;;;4.50;64.60;;;;;;5055458;28;20100;-81
2021/01/08 05:55:13;;;;;;;40.03;20.80;;;4.50;64.70;;;;;;5054411;28;20486;-80
2021/01/08 05:57:42;;;;;;;37.92;19.48;;;4.40;64.70;;;;;;5055695;28;20126;-80
2021/01/08 06:00:09;;;;;;;43.33;22.40;;;4.30;64.80;;;;;;5054917;28;20039;-81
2021/01/08 06:02:36;;;;;;;32.92;18.85;;;4.30;64.90;;;;;;5054981;28;20021;-80
2021/01/08 06:05:06;;;;;;;38.88;20.95;;;4.30;65.10;;;;;;5057314;28;20028;-80
2021/01/08 06:07:37;;;;;;;37.53;21.38;;;4.30;65.30;;;;;;5074216;28;20028;-75
2021/01/08 06:10:06;;;;;;;34.58;18.20;;;4.20;65.40;;;;;;5073385;28;20024;-79
2021/01/08 06:12:38;;;;;;;41.78;21.00;;;4.20;65.60;;;;;;5074432;28;20078;-80
2021/01/08 06:15:08;;;;;;;33.30;17.88;;;4.20;65.90;;;;;;5074879;28;20044;-79
2021/01/08 06:17:36;;;;;;;41.92;22.00;;;4.30;66.30;;;;;;5074197;28;20025;-77
2021/01/08 06:20:04;;;;;;;37.95;20.25;;;4.30;67.30;;;;;;5068738;28;20036;-80
2021/01/08 06:22:38;;;;;;;46.63;23.80;;;4.30;66.70;;;;;;5053246;28;20029;-78
2021/01/08 06:25:05;;;;;;;48.17;23.73;;;4.40;66.80;;;;;;5054289;28;20543;-75
2021/01/08 06:27:33;;;;;;;48.33;23.98;;;4.40;66.80;;;;;;5054507;28;20037;-75
2021/01/08 06:30:01;;;;;;;51.55;24.35;;;4.50;66.80;;;;;;5054642;28;20032;-79
2021/01/08 06:32:31;;;;;;;51.90;25.50;;;4.50;66.70;;;;;;5054078;28;20021;-81
2021/01/08 06:35:08;;;;;;;44.30;22.13;;;4.50;66.40;;;;;;5065130;28;20032;-80
2021/01/08 06:37:41;;;;;;;41.10;21.10;;;4.60;66.40;;;;;;5052839;28;20064;-76
2021/01/08 06:40:10;;;;;;;56.42;25.08;;;4.60;66.30;;;;;;5053015;28;20029;-80
2021/01/08 06:42:44;;;;;;;43.72;22.50;;;4.70;66.20;;;;;;5054233;28;20386;-80
2021/01/08 06:45:16;;;;;;;43.70;22.33;;;4.70;65.90;;;;;;5053890;28;20024;-75
2021/01/08 06:47:47;;;;;;;48.67;21.92;;;4.70;65.70;;;;;;5054405;28;20501;-77
2021/01/08 06:50:16;;;;;;;38.92;20.73;;;4.70;65.70;;;;;;5054045;28;20478;-82
2021/01/08 06:52:45;;;;;;;47.78;22.42;;;4.80;65.70;;;;;;5054997;28;20031;-81
2021/01/08 06:55:14;;;;;;;45.35;21.10;;;4.80;65.80;;;;;;5060224;28;20029;-80
2021/01/08 06:57:52;;;;;;;59.40;26.42;;;4.80;65.90;;;;;;5053988;28;20036;-78
2021/01/08 07:00:22;;;;;;;50.92;21.85;;;4.90;65.80;;;;;;5052759;28;20028;-83
2021/01/08 07:02:54;;;;;;;47.65;23.10;;;4.90;65.80;;;;;;5052495;28;20036;-78
2021/01/08 07:05:21;;;;;;;62.72;26.35;;;4.90;65.80;;;;;;5054008;28;20039;-80
2021/01/08 07:07:48;;;;;;;48.80;24.10;;;4.90;65.80;;;;;;5053945;28;20032;-79
2021/01/08 07:10:19;;;;;;;54.08;25.52;;;5.00;65.80;;;;;;5052535;28;20617;-82
2021/01/08 07:12:44;;;;;;;55.72;25.88;;;5.00;65.70;;;;;;5053564;28;20057;-78
2021/01/08 07:15:12;;;;;;;62.20;26.83;;;5.00;65.50;;;;;;5052521;28;20080;-79
2021/01/08 07:17:40;;;;;;;50.47;24.33;;;5.00;65.30;;;;;;5053792;28;20100;-80
2021/01/08 07:20:08;;;;;;;44.25;22.45;;;5.00;65.20;;;;;;5052474;28;20482;-77
2021/01/08 07:22:39;;;;;;;49.35;21.80;;;5.00;65.20;;;;;;5052356;28;20029;-81
2021/01/08 07:25:12;;;;;;;51.88;23.13;;;5.10;65.40;;;;;;5053502;28;20041;-82
2021/01/08 07:27:41;;;;;;;50.33;23.30;;;5.10;66.30;;;;;;5053895;28;20389;-79
2021/01/08 07:30:10;;;;;;;54.88;25.45;;;5.10;65.60;;;;;;5055194;28;20029;-80
2021/01/08 07:32:50;;;;;;;49.55;23.90;;;5.10;65.50;;;;;;5058917;28;20032;-76
2021/01/08 07:35:25;;;;;;;43.70;21.77;;;5.20;65.50;;;;;;5062676;28;20037;-77
2021/01/08 07:38:07;;;;;;;60.15;25.17;;;5.20;65.40;;;;;;5064700;28;20017;-76
2021/01/08 07:40:38;;;;;;;56.85;26.02;;;5.30;65.50;;;;;;5077672;28;20024;-78
2021/01/08 07:43:07;;;;;;;59.85;26.95;;;5.30;65.40;;;;;;5064293;28;20029;-77
2021/01/08 07:45:55;;;;;;;56.83;26.42;;;5.30;65.20;;;;;;5061871;28;20036;-80
2021/01/08 07:48:38;;;;;;;52.20;24.33;;;5.40;64.90;;;;;;5054320;28;20059;-82
2021/01/08 07:51:08;;;;;;;57.72;26.42;;;5.40;65.00;;;;;;5058091;28;20494;-77
2021/01/08 07:53:53;;;;;;;61.30;25.33;;;5.40;65.00;;;;;;5060499;28;20378;-79
2021/01/08 07:56:21;;;;;;;59.40;27.17;;;5.50;65.00;;;;;;5061763;28;20021;-79
2021/01/08 07:59:04;;;;;;;59.08;25.63;;;5.50;64.90;;;;;;5057378;28;20013;-82
2021/01/08 08:01:31;;;;;;;58.65;26.63;;;5.50;64.90;;;;;;5057192;28;20493;-79
2021/01/08 08:04:02;;;;;;;61.05;26.48;;;5.60;64.80;;;;;;5055827;28;20493;-80
2021/01/08 08:06:31;;;;;;;77.53;32.03;;;5.70;64.70;;;;;;5057468;28;20082;-81
2021/01/08 08:09:01;;;;;;;57.47;26.98;;;5.70;64.40;;;;;;5057108;28;20021;-79
2021/01/08 08:11:29;;;;;;;57.80;26.83;;;5.70;63.90;;;;;;5055983;28;20035;-80
2021/01/08 08:13:55;;;;;;;55.78;25.45;;;5.70;63.80;;;;;;5056643;28;20025;-85
2021/01/08 08:16:37;;;;;;;54.00;26.35;;;5.70;63.60;;;;;;5057053;28;20017;-79
2021/01/08 08:19:04;;;;;;;47.88;24.52;;;5.70;63.40;;;;;;5056673;28;20021;-84
2021/01/08 08:21:30;;;;;;;52.67;26.05;;;5.70;64.20;;;;;;5056751;28;20025;-79
2021/01/08 08:23:58;;;;;;;41.47;21.85;;;5.70;63.30;;;;;;5056106;28;20379;-79
2021/01/08 08:26:25;;;;;;;40.22;21.27;;;5.80;63.40;;;;;;5056623;28;20075;-78
2021/01/08 08:29:02;;;;;;;34.83;18.92;;;5.80;63.60;;;;;;5056669;28;20055;-77
2021/01/08 08:31:30;;;;;;;32.30;19.40;;;5.80;63.60;;;;;;5056737;28;20108;-83
2021/01/08 08:33:57;;;;;;;35.00;20.15;;;5.90;63.60;;;;;;5056362;28;20036;-80
2021/01/08 08:36:26;;;;;;;34.42;19.70;;;5.90;63.40;;;;;;5055022;28;20028;-81
2021/01/08 08:39:04;;;;;;;34.13;20.23;;;5.90;63.40;;;;;;5056389;28;20100;-78
2021/01/08 08:41:32;;;;;;;39.05;23.23;;;6.00;63.30;;;;;;5056240;28;20036;-79
2021/01/08 08:44:13;;;;;;;35.17;19.50;;;6.00;62.80;;;;;;5055995;28;20032;-78
2021/01/08 08:46:43;;;;;;;34.80;19.38;;;6.00;62.80;;;;;;5056057;28;20052;-83
2021/01/08 08:49:11;;;;;;;34.33;20.25;;;6.00;63.00;;;;;;5054847;28;20027;-78
2021/01/08 08:51:41;;;;;;;30.63;18.98;;;6.10;63.20;;;;;;5055986;28;20512;-79
2021/01/08 08:54:06;;;;;;;25.80;15.98;;;6.10;62.80;;;;;;5067085;28;20034;-78
2021/01/08 08:56:32;;;;;;;30.27;17.13;;;6.20;63.00;;;;;;5074856;28;20025;-78
2021/01/08 08:58:58;;;;;;;31.58;17.88;;;6.20;63.20;;;;;;5073435;28;20028;-78
2021/01/08 09:01:38;;;;;;;38.42;20.65;;;6.30;63.30;;;;;;5067964;28;20082;-80
2021/01/08 09:04:04;;;;;;;32.08;19.15;;;6.40;63.00;;;;;;5071838;28;20025;-77
2021/01/08 09:06:34;;;;;;;37.00;21.05;;;6.50;63.00;;;;;;5069120;28;20067;-79
2021/01/08 09:09:00;;;;;;;33.05;18.65;;;6.50;62.70;;;;;;5061515;28;20029;-80
2021/01/08 09:11:41;;;;;;;37.72;20.80;;;6.60;62.70;;;;;;5056146;28;20035;-78
2021/01/08 09:14:13;;;;;;;41.33;21.13;;;6.70;62.60;;;;;;5057678;28;20017;-78
2021/01/08 09:16:54;;;;;;;44.50;23.30;;;6.80;62.50;;;;;;5055274;28;20021;-78
2021/01/08 09:19:56;;;;;;;41.08;23.80;;;6.80;62.40;;;;;;5058412;28;20481;-78
2021/01/08 09:22:22;;;;;;;43.10;24.15;;;6.90;62.60;;;;;;5064333;28;20029;-78
2021/01/08 09:24:49;;;;;;;43.05;23.50;;;6.90;61.30;;;;;;5054970;28;20041;-77
2021/01/08 09:27:16;;;;;;;40.28;21.40;;;7.00;61.00;;;;;;5061212;28;20021;-77
2021/01/08 09:29:42;;;;;;;42.30;23.50;;;7.00;61.10;;;;;;5055087;28;20025;-78
2021/01/08 09:32:08;;;;;;;38.22;22.95;;;7.10;61.00;;;;;;5067727;28;20442;-78
2021/01/08 09:34:36;;;;;;;39.47;21.45;;;7.10;60.90;;;;;;5074945;28;20021;-78
2021/01/08 09:37:16;;;;;;;39.13;21.00;;;7.20;60.60;;;;;;5074562;28;20079;-78
2021/01/08 09:39:43;;;;;;;31.90;19.52;;;7.20;60.30;;;;;;5072900;28;20069;-79
2021/01/08 09:42:11;;;;;;;34.20;17.85;;;7.30;60.40;;;;;;5073799;28;20070;-79
2021/01/08 09:44:41;;;;;;;30.50;18.80;;;7.40;60.40;;;;;;5071712;28;20036;-78
2021/01/08 09:47:13;;;;;;;34.00;18.58;;;7.40;59.70;;;;;;5074701;28;20482;-79
2021/01/08 09:49:52;;;;;;;29.17;17.27;;;7.50;59.70;;;;;;5067687;28;20024;-79
2021/01/08 09:52:27;;;;;;;31.73;17.35;;;7.60;59.90;;;;;;5053307;28;20054;-80
2021/01/08 09:54:52;;;;;;;;;;;7.70;60.00;;;;;;5055054;28;20017;-77
2021/01/08 09:57:29;;;;;;;31.55;19.45;;;7.80;60.30;;;;;;5053341;28;19912;-79
2021/01/08 09:59:58;;;;;;;33.30;18.60;;;7.80;59.30;;;;;;5055276;28;20052;-79
2021/01/08 10:02:46;;;;;;;32.00;18.27;;;7.90;59.10;;;;;;5063381;28;20032;-79
2021/01/08 10:05:27;;;;;;;34.78;18.88;;;7.90;58.60;;;;;;5063194;28;20085;-78
2021/01/08 10:07:56;;;;;;;36.90;17.88;;;7.90;58.50;;;;;;5063888;28;20496;-74
2021/01/08 10:10:28;;;;;;;33.47;17.85;;;7.90;58.60;;;;;;5062647;28;20393;-74
2021/01/08 10:12:55;;;;;;;30.10;16.50;;;7.90;58.40;;;;;;5060113;28;20056;-73
2021/01/08 10:15:36;;;;;;;23.98;14.07;;;7.90;58.40;;;;;;5074047;28;20024;-73
2021/01/08 10:18:12;;;;;;;22.67;13.15;;;7.90;58.40;;;;;;5071740;28;20381;-73
2021/01/08 10:21:02;;;;;;;34.00;17.00;;;8.00;58.60;;;;;;5064764;28;20036;-73
2021/01/08 10:23:28;;;;;;;29.00;16.10;;;8.00;58.10;;;;;;5066490;28;20418;-73
2021/01/08 10:26:09;;;;;;;28.65;15.75;;;8.00;58.20;;;;;;5073156;28;20090;-73
2021/01/08 10:28:45;;;;;;;30.00;15.95;;;8.00;58.10;;;;;;5055623;28;20466;-73
2021/01/08 10:31:11;;;;;;;25.75;14.68;;;8.10;58.00;;;;;;5053301;28;20034;-73
2021/01/08 10:33:36;;;;;;;35.75;16.65;;;8.10;58.20;;;;;;5065926;28;20104;-73
2021/01/08 10:36:03;;;;;;;23.10;14.65;;;8.10;58.30;;;;;;5056543;28;20064;-73
2021/01/08 10:38:29;;;;;;;26.98;16.25;;;8.20;58.50;;;;;;5063953;28;20134;-75
2021/01/08 10:40:54;;;;;;;28.23;16.50;;;8.20;57.90;;;;;;5059639;28;20029;-73
2021/01/08 10:43:20;;;;;;;26.42;16.58;;;8.30;57.30;;;;;;5065053;28;20039;-73
2021/01/08 10:45:46;;;;;;;22.65;14.38;;;8.30;57.40;;;;;;5074854;28;20104;-73
2021/01/08 10:48:11;;;;;;;26.90;15.63;;;8.40;57.70;;;;;;5052601;28;20037;-74
2021/01/08 10:50:37;;;;;;;25.17;14.57;;;8.40;57.80;;;;;;5052752;28;20021;-74
2021/01/08 10:53:03;;;;;;;22.70;14.70;;;8.50;57.80;;;;;;5055094;28;20068;-74
2021/01/08 10:55:29;;;;;;;31.00;17.33;;;8.60;57.80;;;;;;5063398;28;20025;-75
2021/01/08 10:57:56;;;;;;;51.47;20.40;;;8.70;57.30;;;;;;5060869;28;20033;-74
2021/01/08 11:00:22;;;;;;;39.67;18.80;;;8.70;56.60;;;;;;5069002;28;20439;-74
2021/01/08 11:02:48;;;;;;;39.35;19.52;;;8.60;56.20;;;;;;5055647;28;20394;-74
2021/01/08 11:05:14;;;;;;;34.65;18.92;;;8.60;56.20;;;;;;5053947;28;20108;-74
2021/01/08 11:07:40;;;;;;;32.97;18.38;;;8.50;55.70;;;;;;5053338;28;20472;-74
2021/01/08 11:10:07;;;;;;;34.63;17.58;;;8.40;55.80;;;;;;5053023;28;20032;-74
2021/01/08 11:12:34;;;;;;;47.33;19.80;;;8.30;56.00;;;;;;5057240;28;20027;-73
2021/01/08 11:15:04;;;;;;;30.65;17.50;;;8.20;56.00;;;;;;5053595;28;20417;-72
2021/01/08 11:17:29;;;;;;;31.63;17.77;;;8.20;56.30;;;;;;5058350;28;20402;-72
2021/01/08 11:19:55;;;;;;;30.05;17.15;;;8.10;56.50;;;;;;5053210;28;20035;-73
2021/01/08 11:22:21;;;;;;;34.50;17.67;;;8.10;56.60;;;;;;5062503;28;20406;-73
2021/01/08 11:24:47;;;;;;;36.70;19.92;;;8.00;56.90;;;;;;5055501;28;20119;-74
2021/01/08 11:27:13;;;;;;;35.65;20.83;;;8.00;56.80;;;;;;5061799;28;20040;-74
2021/01/08 11:29:40;;;;;;;37.05;18.25;;;7.90;56.90;;;;;;5058193;28;20037;-74
2021/01/08 11:32:08;;;;;;;31.42;17.52;;;7.90;57.20;;;;;;5059988;28;20035;-74
2021/01/08 11:34:34;;;;;;;32.45;17.85;;;7.90;57.80;;;;;;5067360;28;20021;-73
2021/01/08 11:36:59;;;;;;;33.45;19.10;;;7.90;57.80;;;;;;5057949;28;20028;-74
2021/01/08 11:39:25;;;;;;;29.42;17.88;;;8.00;57.70;;;;;;5072110;28;20031;-74
2021/01/08 11:41:55;;;;;;;26.88;17.13;;;8.00;57.40;;;;;;5071633;28;20477;-74
2021/01/08 11:44:22;;;;;;;36.28;18.48;;;8.00;57.50;;;;;;5072909;28;20025;-74
2021/01/08 11:46:49;;;;;;;29.15;16.83;;;8.00;57.40;;;;;;5055613;28;20033;-74
2021/01/08 11:49:15;;;;;;;26.08;16.85;;;8.00;57.30;;;;;;5070656;28;20536;-74
2021/01/08 11:51:41;;;;;;;31.02;18.20;;;8.10;57.30;;;;;;5064795;28;20036;-74
2021/01/08 11:54:06;;;;;;;34.65;19.90;;;8.10;57.10;;;;;;5072879;28;20039;-74
2021/01/08 11:56:32;;;;;;;37.08;20.98;;;8.20;57.10;;;;;;5073729;28;20027;-75
2021/01/08 11:58:58;;;;;;;34.70;19.27;;;8.20;57.30;;;;;;5055726;28;20025;-74
2021/01/08 12:01:25;;;;;;;37.78;19.50;;;8.30;56.80;;;;;;5062203;28;20029;-74
2021/01/08 12:03:52;;;;;;;34.13;19.25;;;8.30;56.70;;;;;;5055752;28;20029;-74
2021/01/08 12:06:18;;;;;;;31.88;18.92;;;8.40;56.90;;;;;;5055474;28;20071;-74
2021/01/08 12:08:44;;;;;;;38.88;21.35;;;8.50;56.90;;;;;;5055439;28;20378;-74
2021/01/08 12:11:15;;;;;;;32.80;19.38;;;8.50;56.70;;;;;;5055687;28;20024;-74
2021/01/08 12:13:42;;;;;;;39.47;21.90;;;8.60;56.50;;;;;;5071437;28;20056;-74
2021/01/08 12:16:08;;;;;;;37.45;22.25;;;8.60;56.40;;;;;;5073594;28;20848;-74
2021/01/08 12:18:33;;;;;;;37.35;20.55;;;8.70;56.20;;;;;;5073808;28;20108;-74
2021/01/08 12:20:59;;;;;;;32.00;18.73;;;8.70;56.10;;;;;;5074529;28;20107;-74
2021/01/08 12:23:25;;;;;;;32.45;20.27;;;8.70;56.40;;;;;;5058165;28;20048;-74
2021/01/08 12:25:50;;;;;;;38.95;21.45;;;8.80;56.50;;;;;;5065603;28;20057;-74
2021/01/08 12:28:16;;;;;;;36.97;21.80;;;8.80;56.20;;;;;;5076419;28;20032;-74
2021/01/08 12:30:44;;;;;;;33.85;19.10;;;8.90;55.90;;;;;;5054117;28;20037;-74
2021/01/08 12:33:10;;;;;;;37.92;19.58;;;8.90;55.90;;;;;;5075135;28;20024;-74
2021/01/08 12:35:35;;;;;;;30.75;19.13;;;8.90;55.90;;;;;;5059843;28;20390;-74
2021/01/08 12:38:01;;;;;;;33.10;19.67;;;9.00;56.30;;;;;;5063440;28;20052;-74
2021/01/08 12:40:27;;;;;;;31.60;18.35;;;9.00;55.50;;;;;;5068004;28;20060;-73
2021/01/08 12:42:54;;;;;;;36.28;17.83;;;9.00;55.40;;;;;;5066710;28;20024;-73
2021/01/08 12:45:20;;;;;;;31.35;19.00;;;9.10;55.40;;;;;;5065983;28;20028;-73